createdAt,value
2023-04-11T00:01:38.936Z,76.50
2023-04-11T00:05:21.168Z,76.70
2023-04-11T00:09:03.662Z,76.90
2023-04-11T00:12:45.469Z,77.00
2023-04-11T00:16:27.420Z,77.00
2023-04-11T00:20:11.018Z,77.10
2023-04-11T00:23:54.105Z,77.30
2023-04-11T00:27:35.929Z,77.60
2023-04-11T00:31:17.764Z,77.50
2023-04-11T00:34:59.645Z,77.80
2023-04-11T00:38:42.287Z,77.80
2023-04-11T00:42:24.218Z,78.50
2023-04-11T00:46:06.414Z,78.30
2023-04-11T00:49:48.229Z,78.70
2023-04-11T00:53:32.832Z,78.90
2023-04-11T00:57:15.633Z,79.20
2023-04-11T01:00:57.399Z,79.20
2023-04-11T01:04:40.257Z,79.30
2023-04-11T01:08:22.769Z,79.50
2023-04-11T01:12:06.445Z,79.70
2023-04-11T01:15:48.388Z,79.70
2023-04-11T01:19:31.247Z,79.90
2023-04-11T01:23:14.717Z,80.00
2023-04-11T01:26:57.202Z,80.00
2023-04-11T01:30:39.073Z,80.00
2023-04-11T01:34:22.662Z,80.00
2023-04-11T01:38:05.662Z,79.90
2023-04-11T01:41:47.904Z,80.00
2023-04-11T01:45:30.804Z,80.20
2023-04-11T01:49:17.974Z,80.40
2023-04-11T01:52:59.802Z,80.50
2023-04-11T01:56:41.651Z,80.50
2023-04-11T02:00:24.092Z,81.30
2023-04-11T02:04:06.184Z,81.10
2023-04-11T02:07:48.045Z,81.30
2023-04-11T02:11:29.842Z,81.60
2023-04-11T02:15:11.844Z,81.80
2023-04-11T02:18:54.377Z,81.90
2023-04-11T02:22:36.533Z,82.00
2023-04-11T02:26:18.361Z,82.30
2023-04-11T02:30:00.935Z,82.50
2023-04-11T02:33:42.769Z,82.80
2023-04-11T02:37:26.118Z,82.90
2023-04-11T02:41:08.506Z,83.20
2023-04-11T02:44:50.322Z,83.30
2023-04-11T02:48:32.176Z,82.90
2023-04-11T02:52:13.964Z,83.10
2023-04-11T02:55:55.955Z,83.20
2023-04-11T02:59:38.188Z,83.50
2023-04-11T03:03:20.265Z,83.50
2023-04-11T03:07:02.199Z,83.40
2023-04-11T03:10:44.003Z,83.50
2023-04-11T03:14:25.805Z,84.10
2023-04-11T03:18:07.651Z,83.70
2023-04-11T03:21:49.483Z,83.70
2023-04-11T03:25:31.294Z,83.10
2023-04-11T03:29:13.092Z,82.60
2023-04-11T03:32:55.157Z,82.00
2023-04-11T03:36:36.974Z,81.80
2023-04-11T03:40:18.908Z,81.70
2023-04-11T03:44:00.904Z,81.80
2023-04-11T03:47:42.811Z,81.70
2023-04-11T03:51:24.639Z,81.60
2023-04-11T03:55:06.720Z,81.90
2023-04-11T03:58:48.480Z,82.10
2023-04-11T04:02:30.363Z,81.90
2023-04-11T04:06:12.141Z,82.10
2023-04-11T04:09:54.445Z,82.00
2023-04-11T04:13:36.260Z,82.30
2023-04-11T04:17:18.131Z,82.40
2023-04-11T04:20:59.984Z,82.40
2023-04-11T04:24:47.895Z,82.30
2023-04-11T04:28:29.813Z,82.40
2023-04-11T04:32:20.876Z,82.30
2023-04-11T04:36:04.362Z,82.50
2023-04-11T04:39:50.881Z,82.70
2023-04-11T04:43:33.042Z,82.80
2023-04-11T04:47:15.587Z,83.00
2023-04-11T04:50:57.437Z,83.10
2023-04-11T04:54:40.124Z,83.30
2023-04-11T04:58:21.897Z,83.50
2023-04-11T05:02:04.191Z,83.60
2023-04-11T05:05:46.048Z,83.90
2023-04-11T05:09:27.979Z,84.00
2023-04-11T05:13:09.837Z,84.30
2023-04-11T05:16:51.869Z,84.30
2023-04-11T05:20:33.761Z,84.50
2023-04-11T05:24:15.623Z,84.70
2023-04-11T05:27:57.395Z,85.00
2023-04-11T05:31:39.222Z,85.20
2023-04-11T05:35:21.485Z,85.40
2023-04-11T05:39:04.072Z,85.60
2023-04-11T05:42:46.151Z,86.10
2023-04-11T05:46:29.588Z,86.50
2023-04-11T05:50:11.606Z,86.70
2023-04-11T05:53:53.490Z,86.70
2023-04-11T05:57:35.690Z,86.90
2023-04-11T06:01:18.569Z,87.00
2023-04-11T06:05:01.556Z,87.30
2023-04-11T06:08:43.470Z,87.70
2023-04-11T06:12:25.477Z,87.70
2023-04-11T06:16:07.799Z,88.00
2023-04-11T06:19:49.643Z,88.30
2023-04-11T06:23:31.406Z,88.90
2023-04-11T06:27:14.049Z,88.60
2023-04-11T06:30:55.848Z,88.50
2023-04-11T06:34:39.540Z,88.60
2023-04-11T06:38:21.364Z,88.70
2023-04-11T06:42:03.404Z,88.50
2023-04-11T06:45:47.143Z,88.60
2023-04-11T06:49:29.361Z,88.70
2023-04-11T06:53:11.229Z,88.80
2023-04-11T06:56:53.274Z,88.80
2023-04-11T07:00:35.993Z,89.00
2023-04-11T07:04:18.050Z,89.60
2023-04-11T07:08:00.906Z,90.00
2023-04-11T07:11:42.730Z,90.10
2023-04-11T07:15:24.507Z,90.00
2023-04-11T07:19:06.518Z,89.50
2023-04-11T07:22:48.307Z,89.20
2023-04-11T07:26:32.691Z,88.80
2023-04-11T07:30:15.010Z,88.30
2023-04-11T07:33:57.032Z,87.90
2023-04-11T07:37:38.937Z,87.50
2023-04-11T07:41:21.023Z,87.30
2023-04-11T07:45:02.942Z,86.30
2023-04-11T07:48:44.816Z,85.60
2023-04-11T07:52:26.641Z,84.90
2023-04-11T07:56:11.304Z,84.90
2023-04-11T07:59:53.066Z,84.10
2023-04-11T08:03:35.216Z,83.20
2023-04-11T08:07:17.622Z,82.40
2023-04-11T08:10:59.424Z,81.90
2023-04-11T08:14:41.290Z,81.10
2023-04-11T08:18:24.223Z,80.60
2023-04-11T08:22:06.114Z,80.50
2023-04-11T08:25:47.912Z,78.80
2023-04-11T08:29:29.667Z,78.00
2023-04-11T08:33:12.220Z,77.20
2023-04-11T08:36:54.167Z,76.40
2023-04-11T08:40:36.377Z,75.70
2023-04-11T08:44:18.281Z,75.40
2023-04-11T08:48:00.266Z,74.60
2023-04-11T08:51:44.720Z,75.00
2023-04-11T08:55:26.525Z,75.20
2023-04-11T08:59:08.326Z,74.20
2023-04-11T09:02:58.208Z,73.50
2023-04-11T09:06:42.703Z,74.30
2023-04-11T09:10:25.605Z,73.90
2023-04-11T09:14:09.966Z,73.00
2023-04-11T09:17:54.493Z,72.20
2023-04-11T09:21:50.073Z,72.30
2023-04-11T09:25:44.175Z,72.40
2023-04-11T09:29:42.304Z,71.60
2023-04-11T09:33:31.600Z,71.00
2023-04-11T09:37:13.591Z,70.40
2023-04-11T09:40:56.556Z,68.90
2023-04-11T09:44:38.577Z,67.70
2023-04-11T09:48:22.092Z,67.60
2023-04-11T09:52:06.882Z,66.60
2023-04-11T09:55:48.745Z,64.80
2023-04-11T09:59:32.275Z,65.50
2023-04-11T10:03:14.191Z,65.70
2023-04-11T10:07:14.217Z,63.00
2023-04-11T10:10:57.148Z,62.40
2023-04-11T10:14:39.060Z,61.90
2023-04-11T10:18:21.667Z,61.90
2023-04-11T10:22:03.500Z,61.10
2023-04-11T10:25:50.649Z,61.20
2023-04-11T10:29:40.767Z,60.60
2023-04-11T10:33:26.065Z,59.30
2023-04-11T10:37:09.389Z,57.70
2023-04-11T10:41:16.591Z,57.80
2023-04-11T10:45:20.007Z,59.40
2023-04-11T10:49:03.674Z,58.00
2023-04-11T10:52:45.579Z,57.10
2023-04-11T10:56:50.600Z,58.00
2023-04-11T11:01:32.316Z,58.80
2023-04-11T11:05:20.711Z,60.00
2023-04-11T11:09:21.033Z,61.90
2023-04-11T11:13:05.314Z,64.90
2023-04-11T11:16:47.198Z,66.30
2023-04-11T11:20:31.635Z,67.50
2023-04-11T11:24:13.489Z,69.10
2023-04-11T11:28:05.996Z,70.50
2023-04-11T11:31:52.214Z,72.50
2023-04-11T11:35:34.159Z,74.00
2023-04-11T11:39:16.039Z,75.20
2023-04-11T11:42:57.875Z,75.20
2023-04-11T11:46:39.742Z,76.10
2023-04-11T11:50:29.068Z,76.20
2023-04-11T11:54:11.906Z,76.00
2023-04-11T11:57:53.783Z,76.80
2023-04-11T12:01:36.582Z,77.90
2023-04-11T12:05:19.046Z,77.40
2023-04-11T12:09:11.119Z,77.20
2023-04-11T12:12:54.399Z,77.20
2023-04-11T12:16:39.530Z,77.60
2023-04-11T12:20:26.801Z,77.40
2023-04-11T12:24:09.938Z,77.10
2023-04-11T12:27:51.797Z,77.50
2023-04-11T12:31:33.656Z,78.00
2023-04-11T12:35:15.562Z,77.90
2023-04-11T12:38:57.579Z,78.50
2023-04-11T12:42:49.400Z,78.70
2023-04-11T12:46:37.469Z,77.90
2023-04-11T12:50:19.618Z,78.90
2023-04-11T12:54:01.712Z,79.50
2023-04-11T12:57:43.869Z,80.80
2023-04-11T13:01:26.388Z,81.60
2023-04-11T13:05:10.429Z,81.60
2023-04-11T13:08:52.759Z,81.70
2023-04-11T13:12:39.722Z,82.40
2023-04-11T13:16:21.602Z,81.30
2023-04-11T13:20:07.985Z,82.00
2023-04-11T13:23:49.997Z,82.50
2023-04-11T13:27:32.124Z,82.80
2023-04-11T13:31:14.282Z,83.10
2023-04-11T13:34:56.103Z,82.70
2023-04-11T13:38:37.940Z,82.80
2023-04-11T13:42:21.832Z,82.70
2023-04-11T13:46:03.773Z,82.60
2023-04-11T13:49:45.677Z,82.60
2023-04-11T13:53:27.962Z,83.00
2023-04-11T13:57:09.869Z,82.50
2023-04-11T14:00:51.768Z,83.10
2023-04-11T14:04:33.641Z,83.00
2023-04-11T14:08:15.500Z,83.30
2023-04-11T14:11:57.756Z,83.30
2023-04-11T14:15:39.548Z,83.50
2023-04-11T14:19:22.753Z,83.40
2023-04-11T14:23:04.859Z,84.30
2023-04-11T14:26:46.697Z,84.40
2023-04-11T14:30:28.701Z,84.90
2023-04-11T14:34:10.784Z,84.90
2023-04-11T14:37:52.599Z,85.00
2023-04-11T14:41:34.451Z,85.40
2023-04-11T14:45:16.289Z,85.20
2023-04-11T14:48:58.122Z,85.80
2023-04-11T14:52:39.909Z,85.90
2023-04-11T14:56:25.555Z,85.50
2023-04-11T15:00:10.000Z,86.30
2023-04-11T15:03:51.926Z,87.10
2023-04-11T15:07:33.757Z,88.40
2023-04-11T15:11:15.553Z,89.30
2023-04-11T15:14:57.352Z,89.50
2023-04-11T15:18:40.661Z,90.00
2023-04-11T15:22:22.812Z,90.20
2023-04-11T15:26:06.042Z,90.10
2023-04-11T15:29:48.144Z,90.30
2023-04-11T15:33:31.814Z,90.50
2023-04-11T15:37:13.734Z,90.90
2023-04-11T15:40:58.362Z,91.00
2023-04-11T15:44:40.347Z,91.10
2023-04-11T15:48:22.311Z,91.40
2023-04-11T15:52:04.382Z,91.80
2023-04-11T15:55:47.346Z,92.10
2023-04-11T15:59:29.502Z,92.50
2023-04-11T16:03:11.601Z,92.80
2023-04-11T16:06:53.503Z,92.90
2023-04-11T16:10:35.485Z,93.20
2023-04-11T16:14:17.311Z,93.50
2023-04-11T16:17:59.206Z,93.70
2023-04-11T16:21:41.228Z,93.90
2023-04-11T16:25:23.188Z,94.30
2023-04-11T16:29:05.021Z,94.50
2023-04-11T16:32:47.616Z,94.80
2023-04-11T16:36:30.080Z,95.10
2023-04-11T16:40:12.043Z,95.10
2023-04-11T16:43:53.979Z,95.40
2023-04-11T16:47:36.578Z,95.80
2023-04-11T16:51:18.920Z,95.90
2023-04-11T16:55:01.961Z,96.30
2023-04-11T16:58:44.097Z,96.60
2023-04-11T17:02:26.502Z,96.80
2023-04-11T17:06:16.256Z,97.10
2023-04-11T17:09:58.273Z,97.40
2023-04-11T17:13:45.501Z,97.50
2023-04-11T17:17:27.977Z,97.90
2023-04-11T17:21:10.851Z,97.50
2023-04-11T17:24:54.238Z,98.20
2023-04-11T17:28:37.329Z,98.50
2023-04-11T17:32:20.119Z,98.70
2023-04-11T17:36:02.658Z,99.10
2023-04-11T17:39:46.913Z,99.40
2023-04-11T17:43:29.556Z,99.70
2023-04-11T17:47:12.313Z,99.90
2023-04-11T17:50:56.438Z,99.90
2023-04-11T17:54:38.851Z,99.90
2023-04-11T17:58:21.303Z,99.90
2023-04-11T18:02:03.659Z,99.90
2023-04-11T18:05:48.102Z,99.90
2023-04-11T18:09:32.372Z,99.90
2023-04-11T18:13:15.109Z,99.90
2023-04-11T18:16:57.999Z,99.90
2023-04-11T18:20:40.738Z,99.90
2023-04-11T18:24:24.347Z,99.90
2023-04-11T18:28:08.203Z,99.90
2023-04-11T18:32:19.895Z,99.90
2023-04-11T18:35:58.801Z,99.90
2023-04-11T18:39:41.913Z,99.90
2023-04-11T18:43:25.206Z,99.90
2023-04-11T18:47:10.587Z,99.90
2023-04-11T18:51:01.178Z,99.90
2023-04-11T18:54:45.637Z,99.90
2023-04-11T18:58:30.290Z,99.90
2023-04-11T19:02:15.431Z,99.90
2023-04-11T19:05:58.887Z,99.90
2023-04-11T19:09:42.442Z,99.90
2023-04-11T19:13:26.442Z,99.90
2023-04-11T19:17:11.500Z,99.90
2023-04-11T19:20:55.604Z,99.90
2023-04-11T19:24:39.002Z,99.90
2023-04-11T19:28:21.964Z,99.90
2023-04-11T19:32:08.792Z,99.90
2023-04-11T19:35:52.770Z,99.90
2023-04-11T19:39:38.181Z,99.90
2023-04-11T19:43:21.037Z,99.90
2023-04-11T19:47:06.869Z,99.90
2023-04-11T19:50:49.527Z,99.90
2023-04-11T19:54:33.969Z,99.90
2023-04-11T19:58:17.134Z,99.90
2023-04-11T20:02:02.098Z,99.90
2023-04-11T20:05:45.387Z,99.90
2023-04-11T20:09:29.644Z,99.90
2023-04-11T20:13:15.576Z,99.90
2023-04-11T20:16:59.927Z,99.90
2023-04-11T20:20:42.680Z,99.90
2023-04-11T20:24:25.361Z,99.90
2023-04-11T20:28:08.264Z,99.90
2023-04-11T20:31:51.450Z,99.90
2023-04-11T20:35:34.484Z,99.90
2023-04-11T20:39:17.285Z,99.90
2023-04-11T20:43:02.439Z,99.90
2023-04-11T20:46:46.646Z,99.90
2023-04-11T20:50:33.867Z,99.90
2023-04-11T20:54:16.353Z,99.90
2023-04-11T20:57:58.871Z,99.90
2023-04-11T21:01:41.003Z,99.90
2023-04-11T21:05:23.025Z,99.90
2023-04-11T21:09:05.851Z,99.90
2023-04-11T21:12:54.343Z,99.90
2023-04-11T21:16:36.691Z,99.90
2023-04-11T21:20:19.754Z,99.90
2023-04-11T21:24:04.106Z,99.90
2023-04-11T21:27:46.806Z,99.90
2023-04-11T21:31:28.665Z,99.90
2023-04-11T21:35:11.596Z,99.90
2023-04-11T21:38:54.406Z,99.90
2023-04-11T21:42:36.458Z,99.90
2023-04-11T21:46:18.400Z,99.90
2023-04-11T21:50:00.399Z,99.90
2023-04-11T21:53:42.265Z,99.90
2023-04-11T21:57:24.114Z,99.90
2023-04-11T22:01:09.933Z,99.90
2023-04-11T22:05:04.494Z,99.90
2023-04-11T22:08:51.371Z,99.90
2023-04-11T22:12:33.207Z,99.90
2023-04-11T22:16:15.185Z,99.90
2023-04-11T22:20:00.127Z,99.90
2023-04-11T22:23:42.938Z,99.90
2023-04-11T22:27:28.085Z,99.90
2023-04-11T22:31:09.965Z,99.90
2023-04-11T22:34:51.888Z,99.90
2023-04-11T22:38:33.677Z,99.90
2023-04-11T22:42:15.908Z,99.90
2023-04-11T22:45:57.819Z,99.90
2023-04-11T22:49:42.775Z,99.90
2023-04-11T22:53:25.458Z,99.90
2023-04-11T22:57:07.411Z,99.90
2023-04-11T23:00:49.966Z,99.90
2023-04-11T23:04:32.619Z,99.90
2023-04-11T23:08:14.640Z,99.90
2023-04-11T23:11:56.570Z,99.90
2023-04-11T23:15:39.304Z,99.90
2023-04-11T23:19:21.073Z,99.90
2023-04-11T23:23:02.911Z,99.90
2023-04-11T23:26:44.839Z,99.90
2023-04-11T23:30:26.929Z,99.90
2023-04-11T23:34:08.700Z,99.90
2023-04-11T23:37:50.965Z,99.90
2023-04-11T23:41:32.777Z,99.90
2023-04-11T23:45:15.158Z,99.90
2023-04-11T23:48:56.998Z,99.90
2023-04-11T23:52:39.722Z,99.90
2023-04-11T23:56:23.122Z,99.90
